createdAt,value
2023-03-02T00:00:05.837Z,57.60
2023-03-02T00:00:15.886Z,63.90
2023-03-02T00:00:25.888Z,58.60
2023-03-02T00:00:36.037Z,45.40
2023-03-02T00:00:45.842Z,43.60
2023-03-02T00:00:55.927Z,44.20
2023-03-02T00:01:05.892Z,46.10
2023-03-02T00:01:15.863Z,46.00
2023-03-02T00:01:25.913Z,45.70
2023-03-02T00:01:35.856Z,47.50
2023-03-02T00:01:45.871Z,45.10
2023-03-02T00:01:56.167Z,44.20
2023-03-02T00:02:05.909Z,42.10
2023-03-02T00:02:15.922Z,43.00
2023-03-02T00:02:26.605Z,41.90
2023-03-02T00:02:36.063Z,43.90
2023-03-02T00:02:45.963Z,44.00
2023-03-02T00:02:55.830Z,52.90
2023-03-02T00:03:05.857Z,49.80
2023-03-02T00:03:15.824Z,46.20
2023-03-02T00:03:26.020Z,44.10
2023-03-02T00:03:35.859Z,43.30
2023-03-02T00:03:45.920Z,43.80
2023-03-02T00:03:55.941Z,44.10
2023-03-02T00:04:05.961Z,49.90
2023-03-02T00:04:15.839Z,48.70
2023-03-02T00:04:25.821Z,46.20
2023-03-02T00:04:35.881Z,50.90
2023-03-02T00:04:45.829Z,53.20
2023-03-02T00:04:55.858Z,59.40
2023-03-02T00:05:05.823Z,49.40
2023-03-02T00:05:15.885Z,49.00
2023-03-02T00:05:25.816Z,47.70
2023-03-02T00:05:35.874Z,50.30
2023-03-02T00:05:45.806Z,46.40
2023-03-02T00:05:55.828Z,49.50
2023-03-02T00:06:05.834Z,45.90
2023-03-02T00:06:15.837Z,46.20
2023-03-02T00:06:25.844Z,45.90
2023-03-02T00:06:35.893Z,53.30
2023-03-02T00:06:45.907Z,59.10
2023-03-02T00:06:55.830Z,54.90
2023-03-02T00:07:06.190Z,44.90
2023-03-02T00:07:15.811Z,41.60
2023-03-02T00:07:25.834Z,40.80
2023-03-02T00:07:35.806Z,44.10
2023-03-02T00:07:45.802Z,49.20
2023-03-02T00:07:55.823Z,60.20
2023-03-02T00:08:05.818Z,59.90
2023-03-02T00:08:15.832Z,51.20
2023-03-02T00:08:25.812Z,47.40
2023-03-02T00:08:35.868Z,45.30
2023-03-02T00:08:46.561Z,45.20
2023-03-02T00:08:55.793Z,48.30
2023-03-02T00:09:05.793Z,50.80
2023-03-02T00:09:15.816Z,45.50
2023-03-02T00:09:25.804Z,46.60
2023-03-02T00:09:35.905Z,45.80
2023-03-02T00:09:45.824Z,44.80
2023-03-02T00:09:55.797Z,45.00
2023-03-02T00:10:05.824Z,45.50
2023-03-02T00:10:15.931Z,51.50
2023-03-02T00:10:25.861Z,48.50
2023-03-02T00:10:35.797Z,45.90
2023-03-02T00:10:45.959Z,44.90
2023-03-02T00:10:55.867Z,45.20
2023-03-02T00:11:05.848Z,46.40
2023-03-02T00:11:15.806Z,46.70
2023-03-02T00:11:25.826Z,47.50
2023-03-02T00:11:35.835Z,50.00
2023-03-02T00:11:45.803Z,46.30
2023-03-02T00:11:55.814Z,56.30
2023-03-02T00:12:05.820Z,55.20
2023-03-02T00:12:16.043Z,59.10
2023-03-02T00:12:25.826Z,51.50
2023-03-02T00:12:35.796Z,47.70
2023-03-02T00:12:45.785Z,46.30
2023-03-02T00:12:55.887Z,45.70
2023-03-02T00:13:05.811Z,47.50
2023-03-02T00:13:15.803Z,52.60
2023-03-02T00:13:25.829Z,50.30
2023-03-02T00:13:35.800Z,48.30
2023-03-02T00:13:45.789Z,46.10
2023-03-02T00:13:55.831Z,45.00
2023-03-02T00:14:05.780Z,47.20
2023-03-02T00:14:15.777Z,47.00
2023-03-02T00:14:25.795Z,51.40
2023-03-02T00:14:35.826Z,48.70
2023-03-02T00:14:46.807Z,54.50
2023-03-02T00:14:56.608Z,61.30
2023-03-02T00:15:05.770Z,71.30
2023-03-02T00:15:15.768Z,74.30
2023-03-02T00:15:25.823Z,76.40
2023-03-02T00:15:35.821Z,75.00
2023-03-02T00:15:45.849Z,75.70
2023-03-02T00:15:55.822Z,75.10
2023-03-02T00:16:06.046Z,69.90
2023-03-02T00:16:16.668Z,64.20
2023-03-02T00:16:25.860Z,58.00
2023-03-02T00:16:35.795Z,56.00
2023-03-02T00:16:46.568Z,53.20
2023-03-02T00:16:55.812Z,64.60
2023-03-02T00:17:05.809Z,61.20
2023-03-02T00:17:15.806Z,70.80
2023-03-02T00:17:25.860Z,63.00
2023-03-02T00:17:35.782Z,62.20
2023-03-02T00:17:45.781Z,49.50
2023-03-02T00:17:56.592Z,50.00
2023-03-02T00:18:05.839Z,50.70
2023-03-02T00:18:15.785Z,57.40
2023-03-02T00:18:25.767Z,55.80
2023-03-02T00:18:35.793Z,57.60
2023-03-02T00:18:45.783Z,57.60
2023-03-02T00:18:55.831Z,60.70
2023-03-02T00:19:05.798Z,60.60
2023-03-02T00:19:15.870Z,64.20
2023-03-02T00:19:25.760Z,60.20
2023-03-02T00:19:35.778Z,54.50
2023-03-02T00:19:45.813Z,54.20
2023-03-02T00:19:55.793Z,52.30
2023-03-02T00:20:05.805Z,57.30
2023-03-02T00:20:15.806Z,56.70
2023-03-02T00:20:25.817Z,56.20
2023-03-02T00:20:35.776Z,59.00
2023-03-02T00:20:45.756Z,60.00
2023-03-02T00:20:55.775Z,62.40
2023-03-02T00:21:05.766Z,60.50
2023-03-02T00:21:15.826Z,53.70
2023-03-02T00:21:25.750Z,56.40
2023-03-02T00:21:35.774Z,55.30
2023-03-02T00:21:45.811Z,52.90
2023-03-02T00:21:55.748Z,50.80
2023-03-02T00:22:05.768Z,55.20
2023-03-02T00:22:15.754Z,64.70
2023-03-02T00:22:25.750Z,68.30
2023-03-02T00:22:35.815Z,68.00
2023-03-02T00:22:45.776Z,69.50
2023-03-02T00:22:55.871Z,69.10
2023-03-02T00:23:05.808Z,65.30
2023-03-02T00:23:15.765Z,66.10
2023-03-02T00:23:25.798Z,68.90
2023-03-02T00:23:35.787Z,73.30
2023-03-02T00:23:45.814Z,71.60
2023-03-02T00:23:55.754Z,62.80
2023-03-02T00:24:05.801Z,61.00
2023-03-02T00:24:15.754Z,51.60
2023-03-02T00:24:25.795Z,60.70
2023-03-02T00:24:35.812Z,58.50
2023-03-02T00:24:45.747Z,64.70
2023-03-02T00:24:55.780Z,54.70
2023-03-02T00:25:05.737Z,60.00
2023-03-02T00:25:16.588Z,52.30
2023-03-02T00:25:26.581Z,62.50
2023-03-02T00:25:35.904Z,55.80
2023-03-02T00:25:45.945Z,54.20
2023-03-02T00:25:55.767Z,49.60
2023-03-02T00:26:05.785Z,53.00
2023-03-02T00:26:15.832Z,54.80
2023-03-02T00:26:25.783Z,58.40
2023-03-02T00:26:35.752Z,65.80
2023-03-02T00:26:45.773Z,62.10
2023-03-02T00:26:56.561Z,51.40
2023-03-02T00:27:05.810Z,48.10
2023-03-02T00:27:15.763Z,51.40
2023-03-02T00:27:25.748Z,62.10
2023-03-02T00:27:35.819Z,49.40
2023-03-02T00:27:45.895Z,49.30
2023-03-02T00:27:55.828Z,53.00
2023-03-02T00:28:05.728Z,63.50
2023-03-02T00:28:15.754Z,65.30
2023-03-02T00:28:25.718Z,52.70
2023-03-02T00:28:35.742Z,48.50
2023-03-02T00:28:45.736Z,49.40
2023-03-02T00:28:55.730Z,65.20
2023-03-02T00:29:05.728Z,71.90
2023-03-02T00:29:15.757Z,67.40
2023-03-02T00:29:25.713Z,65.40
2023-03-02T00:29:35.744Z,57.00
2023-03-02T00:29:45.708Z,56.20
2023-03-02T00:29:55.734Z,46.70
2023-03-02T00:30:05.794Z,53.90
2023-03-02T00:30:15.748Z,50.70
2023-03-02T00:30:25.716Z,55.60
2023-03-02T00:30:35.760Z,54.60
2023-03-02T00:30:45.734Z,65.20
2023-03-02T00:30:55.835Z,64.50
2023-03-02T00:31:05.850Z,60.70
2023-03-02T00:31:15.760Z,62.20
2023-03-02T00:31:25.835Z,58.90
2023-03-02T00:31:35.748Z,60.30
2023-03-02T00:31:45.946Z,61.00
2023-03-02T00:31:55.908Z,57.70
2023-03-02T00:32:05.793Z,61.80
2023-03-02T00:32:15.742Z,51.70
2023-03-02T00:32:25.782Z,51.70
2023-03-02T00:32:35.929Z,54.20
2023-03-02T00:32:45.803Z,59.50
2023-03-02T00:32:55.755Z,59.70
2023-03-02T00:33:05.741Z,53.10
2023-03-02T00:33:15.724Z,54.20
2023-03-02T00:33:25.736Z,62.30
2023-03-02T00:33:35.694Z,62.10
2023-03-02T00:33:45.725Z,60.80
2023-03-02T00:33:55.717Z,52.70
2023-03-02T00:34:05.707Z,58.00
2023-03-02T00:34:15.705Z,63.30
2023-03-02T00:34:25.730Z,68.20
2023-03-02T00:34:35.703Z,64.90
2023-03-02T00:34:45.715Z,63.20
2023-03-02T00:34:55.703Z,57.00
2023-03-02T00:35:05.687Z,59.00
2023-03-02T00:35:15.730Z,61.40
2023-03-02T00:35:25.722Z,65.30
2023-03-02T00:35:35.746Z,65.50
2023-03-02T00:35:45.856Z,63.10
2023-03-02T00:35:55.838Z,60.40
2023-03-02T00:36:05.714Z,57.60
2023-03-02T00:36:15.745Z,52.70
2023-03-02T00:36:25.704Z,52.30
2023-03-02T00:36:35.698Z,57.40
2023-03-02T00:36:45.724Z,68.50
2023-03-02T00:36:55.680Z,70.80
2023-03-02T00:37:05.714Z,60.50
2023-03-02T00:37:15.708Z,54.90
2023-03-02T00:37:25.743Z,56.80
2023-03-02T00:37:35.710Z,58.00
2023-03-02T00:37:45.750Z,64.70
2023-03-02T00:37:55.711Z,56.90
2023-03-02T00:38:06.584Z,59.60
2023-03-02T00:38:15.718Z,48.70
2023-03-02T00:38:25.706Z,56.40
2023-03-02T00:38:35.695Z,62.90
2023-03-02T00:38:45.688Z,58.80
2023-03-02T00:38:55.691Z,61.60
2023-03-02T00:39:05.707Z,51.00
2023-03-02T00:39:15.678Z,60.30
2023-03-02T00:39:25.691Z,61.30
2023-03-02T00:39:36.648Z,66.50
2023-03-02T00:39:45.688Z,67.00
2023-03-02T00:39:55.705Z,52.00
2023-03-02T00:40:05.737Z,53.70
2023-03-02T00:40:15.665Z,51.40
2023-03-02T00:40:25.687Z,58.50
2023-03-02T00:40:35.857Z,58.90
2023-03-02T00:40:45.690Z,60.70
2023-03-02T00:40:55.705Z,64.40
2023-03-02T00:41:05.771Z,63.60
2023-03-02T00:41:15.684Z,55.00
2023-03-02T00:41:25.691Z,60.40
2023-03-02T00:41:35.746Z,60.30
2023-03-02T00:41:45.681Z,63.20
2023-03-02T00:41:55.669Z,61.50
2023-03-02T00:42:06.557Z,63.10
2023-03-02T00:42:15.711Z,67.60
2023-03-02T00:42:25.689Z,66.00
2023-03-02T00:42:35.677Z,69.40
2023-03-02T00:42:45.670Z,71.80
2023-03-02T00:42:55.690Z,72.80
2023-03-02T00:43:05.661Z,77.80
2023-03-02T00:43:15.711Z,77.80
2023-03-02T00:43:26.566Z,78.50
2023-03-02T00:43:35.709Z,71.30
2023-03-02T00:43:45.714Z,65.60
2023-03-02T00:43:55.703Z,63.60
2023-03-02T00:44:05.802Z,62.10
2023-03-02T00:44:15.724Z,61.70
2023-03-02T00:44:25.676Z,61.70
2023-03-02T00:44:35.668Z,65.00
2023-03-02T00:44:45.676Z,69.30
2023-03-02T00:44:56.557Z,69.90
2023-03-02T00:45:05.668Z,70.10
2023-03-02T00:45:15.685Z,72.20
2023-03-02T00:45:25.698Z,71.40
2023-03-02T00:45:35.680Z,69.00
2023-03-02T00:45:45.693Z,70.40
2023-03-02T00:45:55.650Z,67.70
2023-03-02T00:46:05.733Z,69.60
2023-03-02T00:46:15.754Z,62.80
2023-03-02T00:46:25.703Z,67.10
2023-03-02T00:46:36.038Z,65.00
2023-03-02T00:46:45.783Z,67.50
2023-03-02T00:46:55.769Z,67.40
2023-03-02T00:47:05.695Z,72.70
2023-03-02T00:47:15.676Z,77.50
2023-03-02T00:47:25.685Z,65.70
2023-03-02T00:47:35.642Z,60.60
2023-03-02T00:47:45.665Z,54.70
2023-03-02T00:47:56.599Z,62.60
2023-03-02T00:48:05.661Z,64.50
2023-03-02T00:48:16.700Z,68.30
2023-03-02T00:48:25.761Z,69.20
2023-03-02T00:48:35.684Z,66.30
2023-03-02T00:48:45.706Z,66.20
2023-03-02T00:48:55.654Z,62.30
2023-03-02T00:49:05.625Z,62.20
2023-03-02T00:49:15.689Z,57.70
2023-03-02T00:49:25.643Z,67.00
2023-03-02T00:49:35.735Z,68.30
2023-03-02T00:49:45.626Z,71.10
2023-03-02T00:49:55.621Z,63.50
2023-03-02T00:50:05.691Z,61.90
2023-03-02T00:50:15.641Z,53.80
2023-03-02T00:50:26.676Z,58.00
2023-03-02T00:50:35.633Z,49.20
2023-03-02T00:50:45.632Z,53.40
2023-03-02T00:50:55.654Z,50.40
2023-03-02T00:51:05.619Z,59.00
2023-03-02T00:51:15.647Z,55.00
2023-03-02T00:51:25.777Z,54.60
2023-03-02T00:51:35.707Z,56.10
2023-03-02T00:51:45.641Z,57.60
2023-03-02T00:51:55.647Z,66.70
2023-03-02T00:52:05.644Z,57.50
2023-03-02T00:52:16.629Z,60.40
2023-03-02T00:52:25.668Z,50.80
2023-03-02T00:52:36.600Z,56.00
2023-03-02T00:52:45.746Z,56.60
2023-03-02T00:52:55.616Z,63.50
2023-03-02T00:53:05.645Z,60.80
2023-03-02T00:53:16.597Z,61.10
2023-03-02T00:53:25.639Z,58.00
2023-03-02T00:53:35.726Z,70.60
2023-03-02T00:53:45.642Z,67.00
2023-03-02T00:53:55.623Z,79.40
2023-03-02T00:54:05.653Z,72.50
2023-03-02T00:54:15.617Z,76.30
2023-03-02T00:54:25.630Z,67.10
2023-03-02T00:54:35.661Z,66.60
2023-03-02T00:54:45.632Z,70.00
2023-03-02T00:54:55.618Z,67.40
2023-03-02T00:55:05.611Z,65.50
2023-03-02T00:55:15.639Z,67.70
2023-03-02T00:55:25.608Z,67.60
2023-03-02T00:55:35.619Z,59.50
2023-03-02T00:55:45.640Z,52.20
2023-03-02T00:55:55.675Z,51.70
2023-03-02T00:56:05.643Z,58.80
2023-03-02T00:56:15.641Z,61.80
2023-03-02T00:56:25.687Z,63.70
2023-03-02T00:56:35.692Z,64.70
2023-03-02T00:56:45.777Z,62.90
2023-03-02T00:56:55.610Z,65.60
2023-03-02T00:57:05.610Z,64.80
2023-03-02T00:57:15.631Z,61.80
2023-03-02T00:57:25.645Z,65.10
2023-03-02T00:57:35.626Z,72.30
2023-03-02T00:57:45.615Z,80.50
2023-03-02T00:57:55.609Z,73.30
2023-03-02T00:58:05.688Z,64.70
2023-03-02T00:58:15.627Z,63.90
2023-03-02T00:58:25.622Z,63.50
2023-03-02T00:58:35.588Z,60.80
2023-03-02T00:58:46.124Z,58.20
2023-03-02T00:58:55.739Z,66.20
2023-03-02T00:59:05.635Z,68.20
2023-03-02T00:59:15.593Z,68.20
2023-03-02T00:59:25.585Z,63.70
2023-03-02T00:59:35.620Z,68.70
2023-03-02T00:59:45.627Z,72.50
2023-03-02T00:59:55.645Z,75.30
2023-03-02T01:00:05.605Z,64.50
2023-03-02T01:00:15.613Z,60.90
2023-03-02T01:00:25.616Z,63.50
2023-03-02T01:00:35.773Z,63.30
2023-03-02T01:00:45.606Z,59.10
2023-03-02T01:00:55.664Z,55.50
2023-03-02T01:01:05.603Z,65.90
2023-03-02T01:01:17.646Z,64.40
2023-03-02T01:01:25.627Z,60.90
2023-03-02T01:01:35.718Z,59.90
2023-03-02T01:01:45.602Z,64.00
2023-03-02T01:01:55.698Z,67.10
2023-03-02T01:02:05.645Z,62.70
2023-03-02T01:02:15.671Z,58.10
2023-03-02T01:02:25.727Z,56.50
2023-03-02T01:02:35.849Z,52.00
2023-03-02T01:02:45.697Z,55.30
2023-03-02T01:02:55.910Z,59.30
2023-03-02T01:03:05.634Z,64.70
2023-03-02T01:03:15.637Z,65.70
2023-03-02T01:03:25.679Z,54.70
2023-03-02T01:03:35.693Z,49.30
2023-03-02T01:03:45.620Z,48.20
2023-03-02T01:03:55.696Z,54.50
2023-03-02T01:04:05.600Z,61.20
2023-03-02T01:04:15.595Z,60.20
2023-03-02T01:04:25.619Z,67.40
2023-03-02T01:04:35.586Z,65.50
2023-03-02T01:04:45.575Z,56.40
2023-03-02T01:04:55.569Z,48.20
2023-03-02T01:05:05.631Z,47.50
2023-03-02T01:05:15.622Z,51.60
2023-03-02T01:05:25.593Z,55.20
2023-03-02T01:05:35.705Z,59.80
2023-03-02T01:05:45.574Z,62.50
2023-03-02T01:05:55.671Z,66.60
2023-03-02T01:06:05.589Z,68.70
2023-03-02T01:06:15.648Z,62.90
2023-03-02T01:06:25.583Z,54.00
2023-03-02T01:06:35.579Z,51.20
2023-03-02T01:06:45.610Z,56.50
2023-03-02T01:06:55.633Z,60.50
2023-03-02T01:07:08.669Z,52.30
2023-03-02T01:07:15.564Z,51.10
2023-03-02T01:07:25.588Z,56.00
2023-03-02T01:07:35.580Z,65.30
2023-03-02T01:07:45.602Z,71.20
2023-03-02T01:07:55.567Z,66.80
2023-03-02T01:08:05.555Z,59.10
2023-03-02T01:08:15.559Z,55.90
2023-03-02T01:08:25.589Z,47.90
2023-03-02T01:08:35.667Z,60.30
2023-03-02T01:08:46.167Z,53.90
2023-03-02T01:08:55.571Z,64.00
2023-03-02T01:09:05.624Z,46.40
2023-03-02T01:09:15.655Z,50.10
2023-03-02T01:09:25.706Z,46.00
2023-03-02T01:09:35.662Z,51.90
2023-03-02T01:09:45.572Z,48.30
2023-03-02T01:09:55.630Z,52.80
2023-03-02T01:10:05.588Z,48.90
2023-03-02T01:10:15.588Z,58.10
2023-03-02T01:10:25.577Z,59.90
2023-03-02T01:10:35.604Z,62.60
2023-03-02T01:10:45.589Z,57.20
2023-03-02T01:10:55.554Z,62.20
2023-03-02T01:11:05.595Z,52.10
2023-03-02T01:11:15.607Z,51.30
2023-03-02T01:11:25.683Z,45.70
2023-03-02T01:11:35.541Z,51.30
2023-03-02T01:11:45.571Z,48.50
2023-03-02T01:11:55.554Z,46.80
2023-03-02T01:12:05.580Z,46.00
2023-03-02T01:12:15.579Z,46.80
2023-03-02T01:12:25.703Z,57.50
2023-03-02T01:12:35.593Z,65.50
2023-03-02T01:12:45.561Z,69.30
2023-03-02T01:12:55.671Z,63.30
2023-03-02T01:13:05.550Z,56.10
2023-03-02T01:13:15.576Z,56.90
2023-03-02T01:13:25.669Z,58.90
2023-03-02T01:13:35.557Z,56.40
2023-03-02T01:13:45.566Z,57.20
2023-03-02T01:13:55.543Z,56.30
2023-03-02T01:14:05.608Z,59.40
2023-03-02T01:14:15.578Z,56.30
2023-03-02T01:14:25.544Z,55.50
2023-03-02T01:14:35.577Z,54.80
2023-03-02T01:14:45.665Z,57.10
2023-03-02T01:14:55.572Z,61.10
2023-03-02T01:15:05.576Z,61.30
2023-03-02T01:15:15.573Z,64.70
2023-03-02T01:15:25.586Z,68.20
2023-03-02T01:15:36.099Z,72.90
2023-03-02T01:15:45.601Z,66.70
2023-03-02T01:15:55.635Z,61.80
2023-03-02T01:16:05.638Z,60.30
2023-03-02T01:16:15.585Z,63.00
2023-03-02T01:16:25.663Z,61.70
2023-03-02T01:16:35.758Z,60.10
2023-03-02T01:16:45.613Z,55.80
2023-03-02T01:16:55.534Z,63.90
2023-03-02T01:17:05.526Z,65.30
2023-03-02T01:17:15.575Z,73.20
2023-03-02T01:17:25.570Z,69.40
2023-03-02T01:17:35.639Z,69.00
2023-03-02T01:17:45.557Z,62.40
2023-03-02T01:17:55.554Z,60.10
2023-03-02T01:18:05.550Z,57.00
2023-03-02T01:18:15.538Z,61.10
2023-03-02T01:18:25.559Z,66.00
2023-03-02T01:18:35.557Z,60.10
2023-03-02T01:18:45.514Z,61.80
2023-03-02T01:18:55.512Z,55.70
2023-03-02T01:19:05.543Z,60.40
2023-03-02T01:19:15.535Z,53.40
2023-03-02T01:19:25.664Z,57.20
2023-03-02T01:19:36.114Z,70.20
2023-03-02T01:19:45.518Z,74.70
2023-03-02T01:19:56.077Z,75.80
2023-03-02T01:20:05.549Z,64.80
2023-03-02T01:20:15.536Z,62.70
2023-03-02T01:20:25.529Z,58.20
2023-03-02T01:20:35.543Z,56.00
2023-03-02T01:20:45.592Z,51.40
2023-03-02T01:20:55.566Z,56.30
2023-03-02T01:21:05.530Z,56.30
2023-03-02T01:21:15.583Z,53.60
2023-03-02T01:21:25.563Z,50.90
2023-03-02T01:21:35.650Z,58.60
2023-03-02T01:21:45.642Z,63.60
2023-03-02T01:21:55.536Z,64.10
2023-03-02T01:22:05.563Z,57.80
2023-03-02T01:22:15.590Z,63.50
2023-03-02T01:22:25.529Z,68.80
2023-03-02T01:22:35.515Z,71.50
2023-03-02T01:22:45.548Z,63.00
2023-03-02T01:22:55.510Z,53.50
2023-03-02T01:23:05.504Z,52.80
2023-03-02T01:23:15.549Z,60.60
2023-03-02T01:23:25.549Z,66.30
2023-03-02T01:23:35.529Z,68.00
2023-03-02T01:23:45.522Z,66.80
2023-03-02T01:23:55.627Z,69.20
2023-03-02T01:24:05.528Z,60.70
2023-03-02T01:24:15.570Z,64.10
2023-03-02T01:24:25.514Z,66.10
2023-03-02T01:24:35.616Z,68.50
2023-03-02T01:24:45.512Z,66.80
2023-03-02T01:24:55.537Z,57.90
2023-03-02T01:25:05.628Z,61.20
2023-03-02T01:25:15.521Z,56.30
2023-03-02T01:25:25.510Z,54.20
2023-03-02T01:25:35.486Z,49.40
2023-03-02T01:25:45.537Z,59.30
2023-03-02T01:25:55.547Z,60.80
2023-03-02T01:26:05.488Z,58.20
2023-03-02T01:26:15.560Z,52.00
2023-03-02T01:26:25.525Z,60.20
2023-03-02T01:26:35.538Z,65.30
2023-03-02T01:26:45.518Z,61.30
2023-03-02T01:26:55.504Z,61.90
2023-03-02T01:27:05.502Z,66.40
2023-03-02T01:27:15.694Z,68.70
2023-03-02T01:27:25.517Z,65.40
2023-03-02T01:27:35.548Z,62.40
2023-03-02T01:27:45.531Z,61.20
2023-03-02T01:27:55.565Z,68.70
2023-03-02T01:28:05.598Z,70.60
2023-03-02T01:28:15.491Z,69.10
2023-03-02T01:28:25.477Z,62.60
2023-03-02T01:28:35.473Z,54.40
2023-03-02T01:28:45.593Z,66.90
2023-03-02T01:28:55.523Z,67.70
2023-03-02T01:29:05.492Z,75.70
2023-03-02T01:29:15.481Z,68.60
2023-03-02T01:29:25.530Z,66.40
2023-03-02T01:29:35.511Z,62.30
2023-03-02T01:29:45.595Z,58.50
2023-03-02T01:29:55.492Z,63.10
2023-03-02T01:30:05.514Z,67.60
2023-03-02T01:30:15.515Z,74.00
2023-03-02T01:30:25.514Z,63.80
2023-03-02T01:30:35.529Z,54.30
2023-03-02T01:30:45.497Z,51.90
2023-03-02T01:30:55.492Z,58.40
2023-03-02T01:31:06.136Z,65.30
2023-03-02T01:31:15.620Z,59.20
2023-03-02T01:31:25.542Z,63.50
2023-03-02T01:31:35.502Z,66.00
2023-03-02T01:31:45.499Z,68.70
2023-03-02T01:31:55.637Z,61.20
2023-03-02T01:32:05.545Z,55.20
2023-03-02T01:32:15.531Z,56.50
2023-03-02T01:32:25.601Z,54.20
2023-03-02T01:32:35.561Z,62.40
2023-03-02T01:32:45.480Z,65.60
2023-03-02T01:32:55.512Z,72.10
2023-03-02T01:33:05.478Z,69.00
2023-03-02T01:33:15.476Z,66.70
2023-03-02T01:33:25.512Z,64.50
2023-03-02T01:33:35.742Z,58.20
2023-03-02T01:33:45.462Z,64.10
2023-03-02T01:33:55.519Z,60.50
2023-03-02T01:34:05.472Z,63.60
2023-03-02T01:34:15.568Z,58.70
2023-03-02T01:34:25.641Z,59.80
2023-03-02T01:34:35.491Z,59.40
2023-03-02T01:34:45.456Z,59.80
2023-03-02T01:34:55.512Z,63.30
2023-03-02T01:35:05.448Z,63.90
2023-03-02T01:35:15.564Z,68.10
2023-03-02T01:35:25.527Z,73.70
2023-03-02T01:35:35.494Z,72.00
2023-03-02T01:35:45.577Z,70.80
2023-03-02T01:35:56.177Z,67.80
2023-03-02T01:36:05.465Z,64.80
2023-03-02T01:36:15.480Z,55.00
2023-03-02T01:36:25.569Z,51.50
2023-03-02T01:36:35.460Z,51.90
2023-03-02T01:36:45.568Z,64.60
2023-03-02T01:36:55.483Z,75.00
2023-03-02T01:37:05.567Z,73.50
2023-03-02T01:37:15.440Z,69.60
2023-03-02T01:37:25.463Z,70.40
2023-03-02T01:37:35.565Z,74.00
2023-03-02T01:37:45.445Z,75.30
2023-03-02T01:37:55.518Z,63.30
2023-03-02T01:38:06.124Z,54.50
2023-03-02T01:38:15.541Z,55.90
2023-03-02T01:38:25.604Z,57.80
2023-03-02T01:38:35.558Z,61.90
2023-03-02T01:38:45.548Z,57.50
2023-03-02T01:38:55.536Z,62.00
2023-03-02T01:39:05.460Z,66.80
2023-03-02T01:39:15.624Z,68.30
2023-03-02T01:39:25.478Z,66.10
2023-03-02T01:39:35.452Z,67.50
2023-03-02T01:39:45.448Z,61.30
2023-03-02T01:39:55.439Z,65.70
2023-03-02T01:40:05.526Z,61.20
2023-03-02T01:40:15.428Z,61.10
2023-03-02T01:40:25.458Z,56.60
2023-03-02T01:40:35.557Z,48.60
2023-03-02T01:40:45.478Z,47.80
2023-03-02T01:40:55.440Z,47.30
2023-03-02T01:41:05.557Z,51.80
2023-03-02T01:41:15.427Z,59.60
2023-03-02T01:41:25.424Z,66.90
2023-03-02T01:41:35.466Z,71.30
2023-03-02T01:41:45.442Z,69.20
2023-03-02T01:41:55.458Z,60.80
2023-03-02T01:42:06.110Z,52.40
2023-03-02T01:42:15.422Z,56.10
2023-03-02T01:42:25.583Z,69.50
2023-03-02T01:42:35.510Z,75.80
2023-03-02T01:42:45.434Z,74.70
2023-03-02T01:42:55.439Z,62.20
2023-03-02T01:43:05.622Z,58.50
2023-03-02T01:43:15.425Z,51.80
2023-03-02T01:43:25.453Z,53.80
2023-03-02T01:43:35.414Z,56.20
2023-03-02T01:43:45.420Z,59.50
2023-03-02T01:43:55.462Z,67.00
2023-03-02T01:44:05.518Z,65.00
2023-03-02T01:44:15.448Z,56.00
2023-03-02T01:44:26.085Z,53.20
2023-03-02T01:44:35.503Z,51.90
2023-03-02T01:44:45.419Z,60.60
2023-03-02T01:44:55.475Z,61.70
2023-03-02T01:45:05.481Z,59.40
2023-03-02T01:45:16.071Z,63.30
2023-03-02T01:45:25.468Z,56.70
2023-03-02T01:45:35.430Z,59.30
2023-03-02T01:45:45.585Z,57.70
2023-03-02T01:45:55.571Z,62.10
2023-03-02T01:46:05.483Z,64.30
2023-03-02T01:46:15.508Z,64.20
2023-03-02T01:46:25.480Z,60.20
2023-03-02T01:46:35.436Z,53.50
2023-03-02T01:46:45.459Z,58.70
2023-03-02T01:46:55.449Z,66.60
2023-03-02T01:47:05.468Z,66.60
2023-03-02T01:47:15.447Z,60.80
2023-03-02T01:47:25.408Z,57.10
2023-03-02T01:47:35.400Z,60.30
2023-03-02T01:47:45.449Z,71.80
2023-03-02T01:47:55.458Z,73.70
2023-03-02T01:48:05.419Z,75.10
2023-03-02T01:48:15.479Z,59.80
2023-03-02T01:48:26.097Z,54.60
2023-03-02T01:48:35.417Z,50.40
2023-03-02T01:48:45.429Z,54.30
2023-03-02T01:48:55.523Z,54.50
2023-03-02T01:49:05.414Z,55.20
2023-03-02T01:49:15.546Z,52.80
2023-03-02T01:49:25.401Z,50.20
2023-03-02T01:49:35.439Z,60.70
2023-03-02T01:49:46.082Z,63.60
2023-03-02T01:49:55.413Z,67.90
2023-03-02T01:50:05.414Z,63.60
2023-03-02T01:50:15.410Z,69.70
2023-03-02T01:50:25.472Z,58.40
2023-03-02T01:50:35.410Z,53.80
2023-03-02T01:50:45.412Z,49.30
2023-03-02T01:50:55.470Z,52.40
2023-03-02T01:51:05.424Z,56.50
2023-03-02T01:51:15.450Z,54.50
2023-03-02T01:51:25.431Z,63.40
2023-03-02T01:51:35.449Z,61.70
2023-03-02T01:51:46.095Z,58.90
2023-03-02T01:51:55.484Z,56.10
2023-03-02T01:52:05.379Z,61.00
2023-03-02T01:52:15.408Z,66.40
2023-03-02T01:52:25.400Z,60.20
2023-03-02T01:52:35.481Z,62.00
2023-03-02T01:52:45.393Z,65.90
2023-03-02T01:52:55.500Z,70.50
2023-03-02T01:53:05.685Z,65.30
2023-03-02T01:53:15.408Z,69.50
2023-03-02T01:53:25.399Z,69.70
2023-03-02T01:53:35.456Z,73.90
2023-03-02T01:53:45.421Z,64.10
2023-03-02T01:53:55.653Z,58.70
2023-03-02T01:54:05.486Z,52.80
2023-03-02T01:54:15.377Z,53.50
2023-03-02T01:54:25.434Z,59.00
2023-03-02T01:54:35.390Z,60.60
2023-03-02T01:54:45.415Z,57.70
2023-03-02T01:54:55.413Z,58.50
2023-03-02T01:55:05.540Z,59.20
2023-03-02T01:55:15.406Z,65.70
2023-03-02T01:55:25.359Z,59.90
2023-03-02T01:55:35.450Z,55.50
2023-03-02T01:55:45.378Z,52.40
2023-03-02T01:55:55.385Z,57.90
2023-03-02T01:56:05.465Z,57.20
2023-03-02T01:56:15.455Z,56.40
2023-03-02T01:56:25.447Z,63.80
2023-03-02T01:56:35.382Z,67.00
2023-03-02T01:56:45.385Z,69.40
2023-03-02T01:56:55.376Z,55.20
2023-03-02T01:57:06.118Z,57.80
2023-03-02T01:57:15.493Z,56.60
2023-03-02T01:57:25.403Z,61.70
2023-03-02T01:57:35.410Z,57.70
2023-03-02T01:57:45.392Z,56.60
2023-03-02T01:57:55.374Z,56.60
2023-03-02T01:58:06.095Z,63.20
2023-03-02T01:58:15.402Z,62.60
2023-03-02T01:58:25.405Z,59.60
2023-03-02T01:58:35.413Z,59.20
2023-03-02T01:58:45.442Z,56.30
2023-03-02T01:58:55.471Z,65.80
2023-03-02T01:59:05.377Z,73.10
2023-03-02T01:59:16.089Z,79.90
2023-03-02T01:59:25.546Z,77.30
2023-03-02T01:59:35.410Z,73.20
2023-03-02T01:59:45.380Z,69.90
2023-03-02T01:59:55.378Z,64.30
2023-03-02T02:00:05.423Z,52.50
2023-03-02T02:00:15.408Z,53.20
2023-03-02T02:00:25.379Z,53.80
2023-03-02T02:00:35.420Z,56.50
2023-03-02T02:00:45.458Z,60.10
2023-03-02T02:00:55.424Z,53.50
2023-03-02T02:01:05.443Z,51.80
2023-03-02T02:01:15.597Z,57.40
2023-03-02T02:01:25.510Z,68.40
2023-03-02T02:01:35.541Z,72.80
2023-03-02T02:01:45.368Z,63.10
2023-03-02T02:01:55.429Z,63.20
2023-03-02T02:02:05.513Z,69.20
2023-03-02T02:02:15.523Z,72.90
2023-03-02T02:02:25.475Z,68.50
2023-03-02T02:02:35.439Z,69.80
2023-03-02T02:02:45.371Z,65.40
2023-03-02T02:02:55.456Z,70.00
2023-03-02T02:03:05.387Z,65.00
2023-03-02T02:03:16.096Z,68.80
2023-03-02T02:03:25.443Z,75.60
2023-03-02T02:03:35.397Z,73.50
2023-03-02T02:03:45.495Z,67.50
2023-03-02T02:03:55.419Z,54.30
2023-03-02T02:04:05.442Z,56.80
2023-03-02T02:04:15.400Z,61.00
2023-03-02T02:04:25.405Z,64.50
2023-03-02T02:04:35.348Z,69.30
2023-03-02T02:04:45.345Z,69.30
2023-03-02T02:04:58.247Z,77.30
2023-03-02T02:05:05.356Z,69.00
2023-03-02T02:05:15.349Z,70.90
2023-03-02T02:05:25.517Z,60.40
2023-03-02T02:05:35.593Z,63.60
2023-03-02T02:05:45.367Z,65.40
2023-03-02T02:05:55.431Z,70.00
2023-03-02T02:06:05.360Z,68.30
2023-03-02T02:06:15.538Z,58.00
2023-03-02T02:06:26.131Z,54.90
2023-03-02T02:06:35.378Z,55.80
2023-03-02T02:06:45.395Z,64.90
2023-03-02T02:06:55.400Z,59.90
2023-03-02T02:07:05.371Z,60.60
2023-03-02T02:07:15.389Z,61.20
2023-03-02T02:07:25.346Z,68.10
2023-03-02T02:07:35.408Z,68.20
2023-03-02T02:07:45.461Z,63.20
2023-03-02T02:07:55.344Z,59.70
2023-03-02T02:08:05.358Z,62.30
2023-03-02T02:08:15.419Z,65.40
2023-03-02T02:08:25.415Z,68.50
2023-03-02T02:08:36.099Z,63.60
2023-03-02T02:08:45.334Z,67.10